Welcome to the New NWS' Forecast!
Most changes are behind the scenes, but click here for differences you might notice.

Terminal Aerodrome Forecast (TAF)

Issued by National Weather Service (NWS)

                            
000
FTUS42 KKEY 180234 AAA
TAFMTH
TAF AMD
KMTH 180234Z 1803/1824 07011G16KT P6SM VCSH FEW025 SCT035
     FM180800 07011KT P6SM FEW025 SCT035
     FM181500 08012G20KT P6SM FEW025=